Flight Track Log - Related Links

Times and Time Zones

All times are in EDT time to prevent confusion due to time zone crossing. See the UAL407 flight status page for this flight to view local times or setup timezone preferences in your user account.

Time Position Orientation Groundspeed Altitude Reporting Facility
EDT Latitude Longitude Course Direction KTS MPH feet Rate Location/Type
Wed 10:08:23 PM 41.9408 -87.9147 270° West 176 203 2,000  Level Chicago Center
Wed 10:09:25 PM 41.9086 -87.9517 220° Southwest 156 180 3,900 1,268 Climbing Chicago Center
Wed 10:10:26 PM 41.8989 -88.0256 260° West 197 227 4,600 1,820 Climbing Chicago Center
Wed 10:11:00 PM 41.9667 -88.5244 270° West  Level FlightAware Approximate
Wed 10:11:27 PM 41.9069 -88.1228 276° West 258 297 7,600  Level Chicago Center
Wed 10:12:00 PM 41.9668 -88.6805 270° West  Level FlightAware Approximate
Wed 10:12:29 PM 41.9308 -88.2186 289° West 275 316 10,400  Level Chicago Center
Wed 10:13:00 PM 41.9668 -88.8365 270° West  Level FlightAware Approximate
Wed 10:13:30 PM 41.9647 -88.3575 288° West 332 382 12,300  Level Chicago Center
Wed 10:14:32 PM 41.9961 -88.4814 289° West 352 405 14,900 2,293 Climbing Chicago Center
Wed 10:15:33 PM 42.0292 -88.6094 289° West 361 415 17,000 1,951 Climbing Chicago Center
Wed 10:16:35 PM 42.0592 -88.7436 287° West 378 435 18,900 1,902 Climbing Chicago Center
Wed 10:17:36 PM 42.0692 -88.8986 275° West 390 449 20,900 1,721 Climbing Chicago Center
Wed 10:18:37 PM 42.0789 -89.0464 275° West 394 453 22,400 1,512 Climbing Chicago Center
Wed 10:19:39 PM 42.0892 -89.2011 275° West 408 470 24,000 1,415 Climbing Chicago Center
Wed 10:20:40 PM 42.0964 -89.3569 274° West 415 478 25,300 1,268 Climbing Chicago Center
Wed 10:21:42 PM 42.1050 -89.5131 274° West 416 479 26,600 1,268 Climbing Chicago Center
Wed 10:22:43 PM 42.1286 -89.6761 281° West 436 502 27,900 1,268 Climbing Chicago Center
Wed 10:23:45 PM 42.1672 -89.8614 286° West 436 502 29,200 1,073 Climbing Chicago Center
Wed 10:24:46 PM 42.1925 -89.9919 285° West 438 504 30,100 1,122 Climbing Chicago Center
Wed 10:25:48 PM 42.2314 -90.1831 285° West 443 510 31,500 1,463 Climbing Chicago Center
Wed 10:26:49 PM 42.2625 -90.3397 285° West 438 504 33,100 1,230 Climbing Chicago Center
Wed 10:27:50 PM 42.2922 -90.4950 285° West 431 496 34,000 439 Climbing Chicago Center
Wed 10:28:52 PM 42.3214 -90.6447 285° West 420 483 34,000  Level Chicago Center
Wed 10:29:53 PM 42.3514 -90.7986 285° West 425 489 34,000  Level Chicago Center
Wed 10:30:55 PM 42.4183 -90.9333 304° West 436 502 34,000  Level Chicago Center
Wed 10:31:56 PM 42.5003 -91.0919 305° West 433 498 34,000  Level Chicago Center
Wed 10:32:57 PM 42.5681 -91.2244 305° West 432 497 34,000 439 Level Chicago Center
Wed 10:33:59 PM 42.6356 -91.3572 305° West 431 496 34,900 939 Climbing Chicago Center
Wed 10:34:52 PM 42.6892 -91.4594 306° West 430 495 35,800 574 Climbing Minneapolis Center
Wed 10:35:54 PM 42.7661 -91.5992 307° West 425 489 36,000 98 Climbing Minneapolis Center
Wed 10:36:55 PM 42.8372 -91.7328 306° West 421 484 36,000  Level Minneapolis Center
Wed 10:37:56 PM 42.9031 -91.8547 306° West 426 490 36,000  Level Minneapolis Center
Wed 10:38:58 PM 42.9736 -91.9842 307° West 428 493 36,000  Level Minneapolis Center
Wed 10:39:59 PM 43.0586 -92.1386 307° West 429 494 36,000  Level Minneapolis Center
Wed 10:41:01 PM 43.1136 -92.2800 298° West 433 498 36,000  Level Minneapolis Center
Wed 10:42:02 PM 43.1339 -92.4361 280° West 424 488 36,000  Level Minneapolis Center
Wed 10:43:03 PM 43.1536 -92.5944 280° West 428 493 36,000  Level Minneapolis Center
Wed 10:44:05 PM 43.1736 -92.7522 280° West 425 489 36,000  Level Minneapolis Center
Wed 10:45:06 PM 43.1931 -92.9100 280° West 425 489 36,000  Level Minneapolis Center
Wed 10:46:07 PM 43.2169 -93.1017 280° West 428 493 36,000  Level Minneapolis Center
Wed 10:47:09 PM 43.2358 -93.2608 279° West 427 491 36,000  Level Minneapolis Center
Wed 10:48:10 PM 43.2550 -93.4208 279° West 429 494 36,000  Level Minneapolis Center
Wed 10:49:11 PM 43.2744 -93.5814 279° West 430 495 36,000  Level Minneapolis Center
Wed 10:50:13 PM 43.2928 -93.7417 279° West 431 496 36,000  Level Minneapolis Center
Wed 10:51:14 PM 43.3111 -93.9008 279° West 428 493 36,000  Level Minneapolis Center
Wed 10:52:15 PM 43.3294 -94.0597 279° West 426 490 36,000  Level Minneapolis Center
Wed 10:53:17 PM 43.3517 -94.2517 279° West 427 491 36,000  Level Minneapolis Center
Wed 10:54:18 PM 43.3672 -94.4008 278° West 425 489 36,000  Level Minneapolis Center
Wed 10:55:19 PM 43.3850 -94.5636 279° West 429 494 36,000  Level Minneapolis Center
Wed 10:56:21 PM 43.4011 -94.7236 278° West 425 489 36,000  Level Minneapolis Center
Wed 10:57:22 PM 43.4178 -94.8839 278° West 423 487 36,000  Level Minneapolis Center
Wed 10:58:24 PM 43.4389 -95.0783 279° West 426 490 36,000  Level Minneapolis Center
Wed 10:59:25 PM 43.4561 -95.2406 278° West 428 493 36,000  Level Minneapolis Center
Wed 11:00:27 PM 43.4686 -95.3722 277° West 433 498 36,000  Level Minneapolis Center
Wed 11:01:28 PM 43.4892 -95.5714 278° West 438 504 36,000  Level Minneapolis Center
Wed 11:02:29 PM 43.5053 -95.7417 277° West 443 510 36,000  Level Minneapolis Center
Wed 11:03:31 PM 43.5222 -95.9122 278° West 449 517 36,000  Level Minneapolis Center
Wed 11:04:32 PM 43.5378 -96.0817 277° West 447 514 36,000  Level Minneapolis Center
Wed 11:05:34 PM 43.5536 -96.2497 277° West 443 510 36,000  Level Minneapolis Center
Wed 11:06:35 PM 43.5694 -96.4194 277° West 444 511 36,000  Level Minneapolis Center
Wed 11:07:37 PM 43.5844 -96.5908 277° West 448 516 36,000  Level Minneapolis Center
Wed 11:08:38 PM 43.6031 -96.7944 277° West 446 513 36,000  Level Minneapolis Center
Wed 11:09:40 PM 43.6181 -96.9642 277° West 446 513 36,000  Level Minneapolis Center
Wed 11:10:41 PM 43.6319 -97.1361 276° West 449 517 36,000  Level Minneapolis Center
Wed 11:11:43 PM 43.6469 -97.3058 277° West 447 514 36,000  Level Minneapolis Center
Wed 11:12:44 PM 43.6603 -97.4753 276° West 446 513 36,000  Level Minneapolis Center
Wed 11:13:46 PM 43.6739 -97.6436 276° West 444 511 36,000  Level Minneapolis Center
Wed 11:14:47 PM 43.6875 -97.8111 276° West 441 507 36,000  Level Minneapolis Center
Wed 11:15:48 PM 43.7000 -97.9761 276° West 433 498 36,000  Level Minneapolis Center
Wed 11:16:50 PM 43.7122 -98.1411 276° West 433 498 36,000  Level Minneapolis Center
Wed 11:17:51 PM 43.7272 -98.3392 276° West 432 497 36,000  Level Minneapolis Center
Wed 11:18:53 PM 43.7392 -98.5053 276° West 433 498 36,000  Level Minneapolis Center
Wed 11:19:54 PM 43.7514 -98.6711 276° West 434 499 36,000  Level Minneapolis Center
Wed 11:20:55 PM 43.7619 -98.8181 276° West 436 502 36,000  Level Minneapolis Center
Wed 11:21:57 PM 43.7756 -99.0158 276° West 432 497 36,000  Level Minneapolis Center
Wed 11:22:58 PM 43.7861 -99.1847 275° West 438 504 36,000  Level Minneapolis Center
Wed 11:23:59 PM 43.7975 -99.3497 276° West 432 497 36,000  Level Minneapolis Center
Wed 11:25:01 PM 43.8072 -99.5142 275° West 429 494 36,000  Level Minneapolis Center
Wed 11:26:02 PM 43.8186 -99.6814 275° West 433 498 36,000  Level Minneapolis Center
Wed 11:27:03 PM 43.8286 -99.8475 275° West 433 498 36,000  Level Minneapolis Center
Wed 11:28:05 PM 43.8383 -100.0147 275° West 433 498 36,000  Level Minneapolis Center
Wed 11:29:06 PM 43.8475 -100.1786 274° West 430 495 36,000  Level Minneapolis Center
Wed 11:30:07 PM 43.8578 -100.3422 275° West 427 491 36,000  Level Minneapolis Center
Wed 11:30:40 PM 43.8622 -100.4417 274° West 430 495 36,000  Level Denver Center
Wed 11:31:41 PM 43.8714 -100.6069 274° West 431 496 36,000  Level Denver Center
Wed 11:32:10 PM 43.8756 -100.6736 275° West 430 495 36,000  Level Minneapolis Center
Wed 11:33:23 PM 43.8858 -100.8725 274° West 431 496 36,000  Level Minneapolis Center
Wed 11:34:24 PM 43.8956 -101.0700 274° West 429 494 36,000  Level Minneapolis Center
Wed 11:35:26 PM 43.9039 -101.2364 274° West 431 496 36,000  Level Minneapolis Center
Wed 11:36:27 PM 43.9117 -101.4028 274° West 431 496 36,000  Level Minneapolis Center
Wed 11:36:47 PM 43.9133 -101.4353 274° West 433 498 36,000  Level Denver Center
Wed 11:37:48 PM 43.9206 -101.6028 273° West 434 499 36,000  Level Denver Center
Wed 11:38:49 PM 43.9419 -101.7978 279° West 427 491 36,000  Level Denver Center
Wed 11:39:50 PM 43.9611 -101.9608 279° West 428 493 36,000  Level Denver Center
Wed 11:41:03 PM 43.9819 -102.1269 280° West 432 497 36,000  Level Denver Center
Wed 11:42:04 PM 44.0067 -102.3264 280° West 435 501 36,000  Level Denver Center
Wed 11:43:06 PM 44.0275 -102.4906 280° West 434 499 36,000  Level Denver Center
Wed 11:44:07 PM 44.0414 -102.6211 278° West 431 496 36,000  Level Denver Center
Wed 11:45:08 PM 44.0636 -102.8175 279° West 429 494 36,000  Level Denver Center
Wed 11:46:09 PM 44.0844 -103.0014 279° West 433 498 36,000  Level Denver Center
Wed 11:47:10 PM 44.1022 -103.1594 279° West 434 499 36,000  Level Denver Center
Wed 11:48:11 PM 44.1197 -103.3189 279° West 435 501 36,000  Level Denver Center
Wed 11:49:13 PM 44.1400 -103.5036 279° West 435 501 36,000  Level Denver Center
Wed 11:50:14 PM 44.1556 -103.6614 278° West 432 497 36,000  Level Denver Center
Wed 11:51:15 PM 44.1742 -103.8453 278° West 432 497 36,000  Level Denver Center
Wed 11:52:16 PM 44.1917 -104.0044 279° West 434 499 36,000  Level Denver Center
Wed 11:53:17 PM 44.2072 -104.1639 278° West 434 499 36,000  Level Denver Center
Wed 11:54:18 PM 44.2258 -104.3481 278° West 433 498 36,000  Level Denver Center
Wed 11:55:20 PM 44.2403 -104.5067 277° West 433 498 36,000  Level Denver Center
Wed 11:56:21 PM 44.2567 -104.6653 278° West 433 498 36,000  Level Denver Center
Wed 11:57:22 PM 44.2744 -104.8517 278° West 434 499 36,000  Level Denver Center
Wed 11:58:23 PM 44.2886 -105.0111 277° West 434 499 36,000  Level Denver Center
Wed 11:59:24 PM 44.3056 -105.1983 277° West 437 503 36,000  Level Denver Center
Thu 12:00:25 AM 44.3206 -105.3572 278° West 434 499 36,000  Level Denver Center
Thu 12:01:26 AM 44.3350 -105.5167 277° West 434 499 36,000  Level Denver Center
Thu 12:02:27 AM 44.3506 -105.7019 277° West 432 497 36,000  Level Denver Center
Thu 12:03:41 AM 44.3669 -105.8897 277° West 435 501 36,000  Level Denver Center
Thu 12:04:12 AM 44.3758 -105.9972 277° West 435 501 36,000  Level Salt Lake Center
Thu 12:05:13 AM 44.3894 -106.1625 277° West 435 501 36,000  Level Salt Lake Center
Thu 12:06:15 AM 44.4036 -106.3222 277° West 433 498 36,000  Level Salt Lake Center
Thu 12:07:16 AM 44.4181 -106.5111 276° West 436 502 36,000  Level Salt Lake Center
Thu 12:08:17 AM 44.4303 -106.6719 276° West 435 501 36,000  Level Salt Lake Center
Thu 12:09:18 AM 44.4425 -106.8333 276° West 437 503 36,000  Level Salt Lake Center
Thu 12:10:19 AM 44.4550 -107.0231 275° West 439 505 36,000  Level Salt Lake Center
Thu 12:11:20 AM 44.4664 -107.1853 276° West 438 504 36,000  Level Salt Lake Center
Thu 12:12:22 AM 44.4803 -107.3753 276° West 438 504 36,000  Level Salt Lake Center
Thu 12:13:23 AM 44.4917 -107.5386 276° West 439 505 36,000  Level Salt Lake Center
Thu 12:14:24 AM 44.5033 -107.7006 276° West 435 501 36,000  Level Salt Lake Center
Thu 12:15:25 AM 44.5158 -107.8936 275° West 441 507 36,000  Level Salt Lake Center
Thu 12:16:26 AM 44.5278 -108.0594 276° West 442 509 36,000  Level Salt Lake Center
Thu 12:17:27 AM 44.5386 -108.2239 275° West 440 506 36,000  Level Salt Lake Center
Thu 12:18:29 AM 44.5489 -108.3894 275° West 442 509 36,000  Level Salt Lake Center
Thu 12:19:30 AM 44.5600 -108.5789 275° West 437 503 36,000  Level Salt Lake Center
Thu 12:20:31 AM 44.5700 -108.7433 275° West 441 507 36,000  Level Salt Lake Center
Thu 12:21:32 AM 44.5819 -108.9350 275° West 441 507 36,000  Level Salt Lake Center
Thu 12:22:33 AM 44.5900 -109.0983 274° West 440 506 36,000  Level Salt Lake Center
Thu 12:23:35 AM 44.5992 -109.2631 275° West 442 509 36,000  Level Salt Lake Center
Thu 12:24:36 AM 44.6083 -109.4556 274° West 443 510 36,000  Level Salt Lake Center
Thu 12:25:37 AM 44.6178 -109.6189 275° West 440 506 36,000  Level Salt Lake Center
Thu 12:26:38 AM 44.6256 -109.7833 274° West 441 507 36,000  Level Salt Lake Center
Thu 12:27:39 AM 44.6358 -109.9611 275° West 442 509 36,000  Level Salt Lake Center
Thu 12:28:41 AM 44.6436 -110.1539 273° West 442 509 36,000  Level Salt Lake Center
Thu 12:29:42 AM 44.6519 -110.3186 274° West 443 510 36,000  Level Salt Lake Center
Thu 12:30:43 AM 44.6600 -110.4836 274° West 443 510 36,000  Level Salt Lake Center
Thu 12:31:44 AM 44.6683 -110.6764 274° West 445 512 36,000  Level Salt Lake Center
Thu 12:32:45 AM 44.6742 -110.8406 273° West 442 509 36,000  Level Salt Lake Center
Thu 12:33:46 AM 44.6825 -111.0344 274° West 446 513 36,000  Level Salt Lake Center
Thu 12:34:47 AM 44.6892 -111.1986 273° West 445 512 36,000  Level Salt Lake Center
Thu 12:35:48 AM 44.6944 -111.3619 273° West 443 510 36,000  Level Salt Lake Center
Thu 12:36:49 AM 44.7022 -111.5514 273° West 445 512 36,000  Level Salt Lake Center
Thu 12:37:50 AM 44.7075 -111.7147 273° West 443 510 36,000  Level Salt Lake Center
Thu 12:38:51 AM 44.7136 -111.9058 273° West 442 509 36,000  Level Salt Lake Center
Thu 12:39:52 AM 44.7189 -112.0703 273° West 441 507 36,000  Level Salt Lake Center
Thu 12:40:53 AM 44.7236 -112.2631 272° West 442 509 36,000  Level Salt Lake Center
Thu 12:41:55 AM 44.7286 -112.4294 272° West 444 511 36,000  Level Salt Lake Center
Thu 12:42:56 AM 44.7333 -112.5947 272° West 444 511 36,000  Level Salt Lake Center
Thu 12:43:57 AM 44.7378 -112.7897 272° West 447 514 36,000  Level Salt Lake Center
Thu 12:44:58 AM 44.7411 -112.9556 272° West 446 513 36,000  Level Salt Lake Center
Thu 12:45:59 AM 44.7453 -113.1217 272° West 443 510 36,000 198 Level Salt Lake Center
Thu 12:46:59 AM 44.7483 -113.3161 271° West 445 512 36,400 793 Climbing Salt Lake Center
Thu 12:48:00 AM 44.7517 -113.4831 272° West 446 513 37,600 787 Climbing Salt Lake Center
Thu 12:49:01 AM 44.7539 -113.6456 271° West 436 502 38,000 197 Climbing Salt Lake Center
Thu 12:50:02 AM 44.7564 -113.8378 271° West 439 505 38,000  Level Salt Lake Center
Thu 12:51:03 AM 44.7603 -114.0192 272° West 441 507 38,000  Level Salt Lake Center
Thu 12:52:04 AM 44.7653 -114.1806 273° West 435 501 38,000  Level Salt Lake Center
Thu 12:53:05 AM 44.7886 -114.3408 282° West 434 499 38,000  Level Salt Lake Center
Thu 12:54:06 AM 44.8106 -114.5278 279° West 434 499 38,000  Level Salt Lake Center
Thu 12:55:07 AM 44.8306 -114.6892 280° West 437 503 38,000  Level Salt Lake Center
Thu 12:56:08 AM 44.8506 -114.8514 280° West 439 505 38,000  Level Salt Lake Center
Thu 12:57:09 AM 44.8728 -115.0408 279° West 440 506 38,000  Level Salt Lake Center
Thu 12:58:10 AM 44.8917 -115.2033 279° West 440 506 38,000  Level Salt Lake Center
Thu 12:59:10 AM 44.9111 -115.3658 280° West 440 506 38,000  Level Salt Lake Center
Thu 01:00:11 AM 44.9328 -115.5564 279° West 442 509 38,000  Level Salt Lake Center
Thu 01:01:12 AM 44.9514 -115.7200 279° West 443 510 38,000  Level Salt Lake Center
Thu 01:02:13 AM 44.9731 -115.9106 279° West 443 510 38,000 -49 Level Salt Lake Center
Thu 01:03:14 AM 44.9908 -116.0739 279° West 443 510 37,900  Descending Salt Lake Center
Thu 01:04:14 AM 45.0089 -116.2383 279° West 444 511 38,000 50 Climbing Salt Lake Center
Thu 01:05:15 AM 45.0294 -116.4311 279° West 446 513 38,000  Level Salt Lake Center
Thu 01:06:16 AM 45.0461 -116.5956 278° West 444 511 38,000  Level Salt Lake Center
Thu 01:06:35 AM 45.0519 -116.6514 278° West 444 511 38,000  Level Seattle Center
Thu 01:07:36 AM 45.0681 -116.8181 278° West 446 513 38,000  Level Seattle Center
Thu 01:08:17 AM 45.0831 -116.9533 279° West 444 511 38,000  Level Salt Lake Center
Thu 01:09:18 AM 45.0992 -117.1189 278° West 444 511 38,000  Level Salt Lake Center
Thu 01:09:37 AM 45.1036 -117.1744 276° West 442 509 38,000  Level Seattle Center
Thu 01:10:38 AM 45.1200 -117.3392 278° West 442 509 38,000  Level Seattle Center
Thu 01:11:38 AM 45.1386 -117.5322 278° West 444 511 38,000  Level Seattle Center
Thu 01:12:39 AM 45.1536 -117.6894 278° West 442 509 38,000  Level Seattle Center
Thu 01:13:39 AM 45.1700 -117.8611 278° West 442 509 38,000  Level Seattle Center
Thu 01:14:40 AM 45.1861 -118.0353 278° West 447 514 38,000  Level Seattle Center
Thu 01:15:41 AM 45.2025 -118.2097 278° West 448 516 38,000  Level Seattle Center
Thu 01:16:41 AM 45.2172 -118.3844 277° West 448 516 38,000  Level Seattle Center
Thu 01:17:42 AM 45.2331 -118.5583 277° West 448 516 38,000  Level Seattle Center
Thu 01:18:43 AM 45.2464 -118.7347 276° West 451 519 38,000  Level Seattle Center
Thu 01:19:43 AM 45.2619 -118.9108 277° West 452 520 38,000  Level Seattle Center
Thu 01:20:44 AM 45.2767 -119.0872 277° West 453 521 38,000  Level Seattle Center
Thu 01:21:44 AM 45.2933 -119.2997 276° West 455 524 38,000  Level Seattle Center
Thu 01:22:45 AM 45.3086 -119.4803 277° West 460 529 38,000  Level Seattle Center
Thu 01:23:46 AM 45.3208 -119.6564 276° West 455 524 38,000 -99 Level Seattle Center
Thu 01:24:46 AM 45.3342 -119.8322 276° West 453 521 37,800 -694 Descending Seattle Center
Thu 01:25:47 AM 45.3472 -120.0089 276° West 457 526 36,600 -1,884 Descending Seattle Center
Thu 01:26:47 AM 45.3600 -120.1894 276° West 463 533 34,000 -2,727 Descending Seattle Center
Thu 01:27:48 AM 45.3733 -120.3728 276° West 472 543 31,100 -2,678 Descending Seattle Center
Thu 01:28:48 AM 45.3847 -120.5583 275° West 473 544 28,600 -2,430 Descending Seattle Center
Thu 01:29:49 AM 45.3961 -120.7367 275° West 463 533 26,200 -2,311 Descending Seattle Center
Thu 01:30:50 AM 45.4078 -120.9125 275° West 452 520 23,900 -2,231 Descending Seattle Center
Thu 01:31:50 AM 45.4186 -121.0833 275° West 439 505 21,700 -2,281 Descending Seattle Center
Thu 01:32:51 AM 45.4303 -121.2481 276° West 425 489 19,300 -2,898 Descending Seattle Center
Thu 01:33:48 AM 45.4581 -121.4283 282° West 409 471 16,000 -3,300 Descending Seattle Center
Thu 01:34:31 AM 45.4697 -121.5347 279° West 395 455 13,800 -2,438 Descending Seattle Center
Thu 01:34:52 AM 45.4700 -121.5600 271° West 398 458 13,400 -2,000 Descending Seattle Center
Thu 01:35:31 AM 45.4872 -121.6786 282° West 370 426 11,800 -2,300 Descending Seattle Center
Thu 01:35:52 AM 45.4903 -121.7322 275° West 373 429 11,100 -1,279 Descending Seattle Center
Thu 01:36:32 AM 45.5044 -121.8136 284° West 337 388 10,500 -885 Descending Seattle Center
Thu 01:36:53 AM 45.5056 -121.8631 272° West 344 396 10,200 -1,000 Descending Seattle Center
Thu 01:37:32 AM 45.5083 -121.9356 273° West 292 336 9,500 -1,200 Descending Seattle Center
Thu 01:37:53 AM 45.5092 -121.9675 272° West 303 349 9,000 -1,475 Descending Seattle Center
Thu 01:38:33 AM 45.5100 -122.0583 271° West 290 334 8,000 -1,377 Descending Seattle Center
Thu 01:38:54 AM 45.5100 -122.0814 270° West 290 334 7,600 -1,574 Descending Seattle Center
Thu 01:39:34 AM 45.5092 -122.1700 269° West 282 325 6,400 -1,800 Descending Seattle Center
Thu 01:39:54 AM 45.5125 -122.2117 277° West 289 333 5,800 -2,000 Descending Seattle Center
Thu 01:40:34 AM 45.5114 -122.2769 269° West 273 314 4,400 -1,574 Descending Seattle Center
Thu 01:40:55 AM 45.5142 -122.3017 279° West 279 321 4,200 -689 Descending Seattle Center
Thu 01:41:35 AM 45.5117 -122.3631 267° West 185 213 3,700 -900 Descending Seattle Center
Thu 01:41:55 AM 45.5158 -122.3772 293° West 209 241 3,300 -1,475 Descending Seattle Center
Thu 01:42:36 AM 45.5292 -122.4269 291° West 171 197 2,200 -1,279 Descending Seattle Center
Thu 01:42:56 AM 45.5344 -122.4394 301° West 174 200 2,000 -889 Descending Seattle Center
Thu 01:43:30 AM 45.5486 -122.4806 296° West 167 192 1,400 -800 Descending Seattle Center
Thu 01:43:56 AM 45.5569 -122.4961 307° West 170 196 1,200 -689 Descending Seattle Center
Thu 01:44:31 AM 45.5672 -122.5286 294° West 131 151 700 -689 Descending Seattle Center
Thu 01:44:57 AM 45.5747 -122.5428 307° West 156 180 500 -462 Descending Seattle Center

Login

Don't have an account? Register now (free) for customized features, flight alerts, and more!